sensor_id;sensor_type;location;lat;lon;timestamp;temperature;humidity
9861;DHT22;4969;52.304;4.968;2023-07-22T00:01:20;20.54;62.65
9861;DHT22;4969;52.304;4.968;2023-07-22T00:03:47;20.54;63.25
9861;DHT22;4969;52.304;4.968;2023-07-22T00:06:14;20.86;62.30
9861;DHT22;4969;52.304;4.968;2023-07-22T00:08:40;21.18;61.36
9861;DHT22;4969;52.304;4.968;2023-07-22T00:11:07;20.69;61.05
9861;DHT22;4969;52.304;4.968;2023-07-22T00:13:35;20.33;63.11
9861;DHT22;4969;52.304;4.968;2023-07-22T00:16:02;20.18;63.70
9861;DHT22;4969;52.304;4.968;2023-07-22T00:18:29;20.40;63.00
9861;DHT22;4969;52.304;4.968;2023-07-22T00:20:57;20.65;63.12
9861;DHT22;4969;52.304;4.968;2023-07-22T00:23:24;20.17;63.27
9861;DHT22;4969;52.304;4.968;2023-07-22T00:25:51;20.27;63.06
9861;DHT22;4969;52.304;4.968;2023-07-22T00:28:17;20.37;63.16
9861;DHT22;4969;52.304;4.968;2023-07-22T00:30:45;20.28;64.00
9861;DHT22;4969;52.304;4.968;2023-07-22T00:33:14;20.41;63.69
9861;DHT22;4969;52.304;4.968;2023-07-22T00:35:41;20.49;62.73
9861;DHT22;4969;52.304;4.968;2023-07-22T00:38:07;20.34;63.41
9861;DHT22;4969;52.304;4.968;2023-07-22T00:40:35;20.30;63.21
9861;DHT22;4969;52.304;4.968;2023-07-22T00:43:02;20.10;63.88
9861;DHT22;4969;52.304;4.968;2023-07-22T00:45:30;19.71;64.17
9861;DHT22;4969;52.304;4.968;2023-07-22T00:47:58;20.10;63.96
9861;DHT22;4969;52.304;4.968;2023-07-22T00:50:25;20.00;63.76
9861;DHT22;4969;52.304;4.968;2023-07-22T00:52:52;20.20;64.18
9861;DHT22;4969;52.304;4.968;2023-07-22T00:55:18;20.31;63.68
9861;DHT22;4969;52.304;4.968;2023-07-22T00:57:45;20.83;62.84
9861;DHT22;4969;52.304;4.968;2023-07-22T01:00:13;21.13;61.97
9861;DHT22;4969;52.304;4.968;2023-07-22T01:02:41;21.57;60.59
9861;DHT22;4969;52.304;4.968;2023-07-22T01:05:11;20.95;60.29
9861;DHT22;4969;52.304;4.968;2023-07-22T01:07:39;20.71;61.17
9861;DHT22;4969;52.304;4.968;2023-07-22T01:10:06;20.34;62.67
9861;DHT22;4969;52.304;4.968;2023-07-22T01:12:34;20.14;62.14
9861;DHT22;4969;52.304;4.968;2023-07-22T01:15:01;20.55;63.50
9861;DHT22;4969;52.304;4.968;2023-07-22T01:17:32;20.69;62.71
9861;DHT22;4969;52.304;4.968;2023-07-22T01:20:00;20.72;62.33
9861;DHT22;4969;52.304;4.968;2023-07-22T01:22:29;20.54;62.54
9861;DHT22;4969;52.304;4.968;2023-07-22T01:24:57;20.49;62.98
9861;DHT22;4969;52.304;4.968;2023-07-22T01:27:24;20.16;63.19
9861;DHT22;4969;52.304;4.968;2023-07-22T01:29:51;20.34;63.85
9861;DHT22;4969;52.304;4.968;2023-07-22T01:32:18;20.24;62.07
9861;DHT22;4969;52.304;4.968;2023-07-22T01:34:45;20.59;63.69
9861;DHT22;4969;52.304;4.968;2023-07-22T01:37:12;20.96;62.42
9861;DHT22;4969;52.304;4.968;2023-07-22T01:39:38;20.90;62.16
9861;DHT22;4969;52.304;4.968;2023-07-22T01:42:06;21.20;61.17
9861;DHT22;4969;52.304;4.968;2023-07-22T01:44:33;20.89;61.61
9861;DHT22;4969;52.304;4.968;2023-07-22T01:47:01;20.92;61.07
9861;DHT22;4969;52.304;4.968;2023-07-22T01:49:28;20.71;62.52
9861;DHT22;4969;52.304;4.968;2023-07-22T01:51:55;20.58;63.04
9861;DHT22;4969;52.304;4.968;2023-07-22T01:54:22;20.92;62.49
9861;DHT22;4969;52.304;4.968;2023-07-22T01:56:48;21.26;61.38
9861;DHT22;4969;52.304;4.968;2023-07-22T01:59:17;21.02;61.64
9861;DHT22;4969;52.304;4.968;2023-07-22T02:01:43;20.92;62.22
9861;DHT22;4969;52.304;4.968;2023-07-22T02:04:10;20.71;61.95
9861;DHT22;4969;52.304;4.968;2023-07-22T02:06:37;21.04;62.19
9861;DHT22;4969;52.304;4.968;2023-07-22T02:09:03;21.18;61.58
9861;DHT22;4969;52.304;4.968;2023-07-22T02:11:34;21.27;61.29
9861;DHT22;4969;52.304;4.968;2023-07-22T02:14:01;21.30;61.20
9861;DHT22;4969;52.304;4.968;2023-07-22T02:16:30;21.43;60.71
9861;DHT22;4969;52.304;4.968;2023-07-22T02:18:56;21.51;60.42
9861;DHT22;4969;52.304;4.968;2023-07-22T02:21:23;21.64;60.28
9861;DHT22;4969;52.304;4.968;2023-07-22T02:23:50;21.79;59.69
9861;DHT22;4969;52.304;4.968;2023-07-22T02:26:16;21.71;59.41
9861;DHT22;4969;52.304;4.968;2023-07-22T02:28:43;21.89;59.36
9861;DHT22;4969;52.304;4.968;2023-07-22T02:31:09;22.03;58.85
9861;DHT22;4969;52.304;4.968;2023-07-22T02:33:38;21.34;59.03
9861;DHT22;4969;52.304;4.968;2023-07-22T02:36:04;21.31;59.78
9861;DHT22;4969;52.304;4.968;2023-07-22T02:38:31;21.65;60.06
9861;DHT22;4969;52.304;4.968;2023-07-22T02:41:01;21.68;59.77
9861;DHT22;4969;52.304;4.968;2023-07-22T02:43:28;21.48;59.99
9861;DHT22;4969;52.304;4.968;2023-07-22T02:45:55;21.04;60.36
9861;DHT22;4969;52.304;4.968;2023-07-22T02:48:21;20.43;60.56
9861;DHT22;4969;52.304;4.968;2023-07-22T02:50:49;20.52;62.61
9861;DHT22;4969;52.304;4.968;2023-07-22T02:53:16;20.65;61.54
9861;DHT22;4969;52.304;4.968;2023-07-22T02:55:44;20.98;61.01
9861;DHT22;4969;52.304;4.968;2023-07-22T02:58:11;20.83;60.06
9861;DHT22;4969;52.304;4.968;2023-07-22T03:00:38;20.55;60.57
9861;DHT22;4969;52.304;4.968;2023-07-22T03:03:05;20.71;62.29
9861;DHT22;4969;52.304;4.968;2023-07-22T03:05:32;20.85;60.73
9861;DHT22;4969;52.304;4.968;2023-07-22T03:08:00;20.89;61.09
9861;DHT22;4969;52.304;4.968;2023-07-22T03:10:27;21.09;60.67
9861;DHT22;4969;52.304;4.968;2023-07-22T03:12:55;21.00;61.70
9861;DHT22;4969;52.304;4.968;2023-07-22T03:15:22;21.02;60.94
9861;DHT22;4969;52.304;4.968;2023-07-22T03:17:51;21.17;61.33
9861;DHT22;4969;52.304;4.968;2023-07-22T03:20:18;20.44;60.04
9861;DHT22;4969;52.304;4.968;2023-07-22T03:22:45;20.20;63.52
9861;DHT22;4969;52.304;4.968;2023-07-22T03:25:14;20.49;62.66
9861;DHT22;4969;52.304;4.968;2023-07-22T03:27:42;20.49;62.29
9861;DHT22;4969;52.304;4.968;2023-07-22T03:30:12;20.63;62.93
9861;DHT22;4969;52.304;4.968;2023-07-22T03:32:40;20.55;62.75
9861;DHT22;4969;52.304;4.968;2023-07-22T03:35:07;20.71;62.11
9861;DHT22;4969;52.304;4.968;2023-07-22T03:37:35;20.69;61.30
9861;DHT22;4969;52.304;4.968;2023-07-22T03:40:02;20.95;62.19
9861;DHT22;4969;52.304;4.968;2023-07-22T03:42:33;20.67;62.00
9861;DHT22;4969;52.304;4.968;2023-07-22T03:45:00;20.83;61.46
9861;DHT22;4969;52.304;4.968;2023-07-22T03:47:26;20.62;61.05
9861;DHT22;4969;52.304;4.968;2023-07-22T03:49:52;20.51;62.08
9861;DHT22;4969;52.304;4.968;2023-07-22T03:52:19;20.09;62.10
9861;DHT22;4969;52.304;4.968;2023-07-22T03:54:45;19.87;62.86
9861;DHT22;4969;52.304;4.968;2023-07-22T03:57:12;20.33;63.63
9861;DHT22;4969;52.304;4.968;2023-07-22T03:59:40;20.44;62.95
9861;DHT22;4969;52.304;4.968;2023-07-22T04:02:07;20.38;62.59
9861;DHT22;4969;52.304;4.968;2023-07-22T04:04:33;20.58;62.85
9861;DHT22;4969;52.304;4.968;2023-07-22T04:07:00;20.55;62.01
9861;DHT22;4969;52.304;4.968;2023-07-22T04:09:27;20.33;62.52
9861;DHT22;4969;52.304;4.968;2023-07-22T04:11:53;20.61;63.17
9861;DHT22;4969;52.304;4.968;2023-07-22T04:14:20;21.00;61.89
9861;DHT22;4969;52.304;4.968;2023-07-22T04:16:48;20.67;61.53
9861;DHT22;4969;52.304;4.968;2023-07-22T04:19:15;20.83;62.56
9861;DHT22;4969;52.304;4.968;2023-07-22T04:21:43;21.13;61.57
9861;DHT22;4969;52.304;4.968;2023-07-22T04:24:09;20.72;61.89
9861;DHT22;4969;52.304;4.968;2023-07-22T04:26:36;20.95;60.94
9861;DHT22;4969;52.304;4.968;2023-07-22T04:29:02;20.93;62.05
9861;DHT22;4969;52.304;4.968;2023-07-22T04:31:29;21.69;60.33
9861;DHT22;4969;52.304;4.968;2023-07-22T04:33:58;21.17;60.90
9861;DHT22;4969;52.304;4.968;2023-07-22T04:36:25;21.50;60.75
9861;DHT22;4969;52.304;4.968;2023-07-22T04:38:51;21.71;60.16
9861;DHT22;4969;52.304;4.968;2023-07-22T04:41:18;21.96;59.56
9861;DHT22;4969;52.304;4.968;2023-07-22T04:43:45;22.02;59.02
9861;DHT22;4969;52.304;4.968;2023-07-22T04:46:13;22.08;58.77
9861;DHT22;4969;52.304;4.968;2023-07-22T04:48:40;22.02;58.76
9861;DHT22;4969;52.304;4.968;2023-07-22T04:51:08;21.95;58.90
9861;DHT22;4969;52.304;4.968;2023-07-22T04:53:35;22.12;58.42
9861;DHT22;4969;52.304;4.968;2023-07-22T04:56:02;22.13;58.25
9861;DHT22;4969;52.304;4.968;2023-07-22T04:58:29;22.16;58.27
9861;DHT22;4969;52.304;4.968;2023-07-22T05:00:55;22.17;58.22
9861;DHT22;4969;52.304;4.968;2023-07-22T05:03:22;22.16;58.07
9861;DHT22;4969;52.304;4.968;2023-07-22T05:05:50;22.24;57.88
9861;DHT22;4969;52.304;4.968;2023-07-22T05:08:18;22.31;57.67
9861;DHT22;4969;52.304;4.968;2023-07-22T05:10:46;22.57;56.86
9861;DHT22;4969;52.304;4.968;2023-07-22T05:13:12;22.41;57.25
9861;DHT22;4969;52.304;4.968;2023-07-22T05:15:39;22.31;57.49
9861;DHT22;4969;52.304;4.968;2023-07-22T05:18:05;22.33;57.40
9861;DHT22;4969;52.304;4.968;2023-07-22T05:20:32;22.37;57.32
9861;DHT22;4969;52.304;4.968;2023-07-22T05:22:59;22.40;57.24
9861;DHT22;4969;52.304;4.968;2023-07-22T05:25:26;22.34;57.41
9861;DHT22;4969;52.304;4.968;2023-07-22T05:27:53;22.28;57.46
9861;DHT22;4969;52.304;4.968;2023-07-22T05:30:20;22.40;57.38
9861;DHT22;4969;52.304;4.968;2023-07-22T05:32:47;22.41;57.25
9861;DHT22;4969;52.304;4.968;2023-07-22T05:35:13;22.40;57.41
9861;DHT22;4969;52.304;4.968;2023-07-22T05:37:40;22.33;57.12
9861;DHT22;4969;52.304;4.968;2023-07-22T05:40:08;22.43;57.40
9861;DHT22;4969;52.304;4.968;2023-07-22T05:42:36;22.54;57.07
9861;DHT22;4969;52.304;4.968;2023-07-22T05:45:03;22.55;57.15
9861;DHT22;4969;52.304;4.968;2023-07-22T05:47:30;22.55;57.08
9861;DHT22;4969;52.304;4.968;2023-07-22T05:49:57;22.58;56.99
9861;DHT22;4969;52.304;4.968;2023-07-22T05:52:23;22.58;56.90
9861;DHT22;4969;52.304;4.968;2023-07-22T05:54:50;22.51;57.24
9861;DHT22;4969;52.304;4.968;2023-07-22T05:57:16;22.58;57.23
9861;DHT22;4969;52.304;4.968;2023-07-22T05:59:44;22.75;56.78
9861;DHT22;4969;52.304;4.968;2023-07-22T06:02:13;22.68;57.02
9861;DHT22;4969;52.304;4.968;2023-07-22T06:04:40;22.74;56.84
9861;DHT22;4969;52.304;4.968;2023-07-22T06:07:06;22.75;56.97
9861;DHT22;4969;52.304;4.968;2023-07-22T06:09:33;22.67;57.24
9861;DHT22;4969;52.304;4.968;2023-07-22T06:12:00;22.81;57.00
9861;DHT22;4969;52.304;4.968;2023-07-22T06:14:27;22.71;57.31
9861;DHT22;4969;52.304;4.968;2023-07-22T06:16:55;22.72;57.38
9861;DHT22;4969;52.304;4.968;2023-07-22T06:19:22;22.75;57.38
9861;DHT22;4969;52.304;4.968;2023-07-22T06:21:48;22.74;57.50
9861;DHT22;4969;52.304;4.968;2023-07-22T06:24:15;22.67;57.81
9861;DHT22;4969;52.304;4.968;2023-07-22T06:26:42;22.69;57.83
9861;DHT22;4969;52.304;4.968;2023-07-22T06:29:08;22.81;57.62
9861;DHT22;4969;52.304;4.968;2023-07-22T06:31:35;22.88;57.46
9861;DHT22;4969;52.304;4.968;2023-07-22T06:34:03;22.91;57.39
9861;DHT22;4969;52.304;4.968;2023-07-22T06:36:30;22.98;57.14
9861;DHT22;4969;52.304;4.968;2023-07-22T06:38:56;22.95;57.27
9861;DHT22;4969;52.304;4.968;2023-07-22T06:41:23;22.69;58.10
9861;DHT22;4969;52.304;4.968;2023-07-22T06:43:50;22.50;58.80
9861;DHT22;4969;52.304;4.968;2023-07-22T06:46:17;22.63;58.72
9861;DHT22;4969;52.304;4.968;2023-07-22T06:48:44;22.82;58.14
9861;DHT22;4969;52.304;4.968;2023-07-22T06:51:12;22.65;58.54
9861;DHT22;4969;52.304;4.968;2023-07-22T06:53:38;22.72;58.53
9861;DHT22;4969;52.304;4.968;2023-07-22T06:56:06;22.47;59.08
9861;DHT22;4969;52.304;4.968;2023-07-22T06:58:32;22.43;59.68
9861;DHT22;4969;52.304;4.968;2023-07-22T07:00:59;22.45;59.41
9861;DHT22;4969;52.304;4.968;2023-07-22T07:03:26;22.34;59.89
9861;DHT22;4969;52.304;4.968;2023-07-22T07:05:53;22.12;60.67
9861;DHT22;4969;52.304;4.968;2023-07-22T07:08:21;22.13;60.68
9861;DHT22;4969;52.304;4.968;2023-07-22T07:10:48;22.06;60.97
9861;DHT22;4969;52.304;4.968;2023-07-22T07:13:15;22.05;61.46
9861;DHT22;4969;52.304;4.968;2023-07-22T07:15:45;22.03;61.62
9861;DHT22;4969;52.304;4.968;2023-07-22T07:18:12;22.47;60.10
9861;DHT22;4969;52.304;4.968;2023-07-22T07:20:37;22.60;59.72
9861;DHT22;4969;52.304;4.968;2023-07-22T07:23:04;22.37;60.59
9861;DHT22;4969;52.304;4.968;2023-07-22T07:25:32;22.24;60.65
9861;DHT22;4969;52.304;4.968;2023-07-22T07:27:59;22.43;60.09
9861;DHT22;4969;52.304;4.968;2023-07-22T07:30:25;22.54;60.00
9861;DHT22;4969;52.304;4.968;2023-07-22T07:32:52;22.64;59.59
9861;DHT22;4969;52.304;4.968;2023-07-22T07:35:18;22.60;59.81
9861;DHT22;4969;52.304;4.968;2023-07-22T07:37:45;22.50;60.63
9861;DHT22;4969;52.304;4.968;2023-07-22T07:40:12;22.54;60.20
9861;DHT22;4969;52.304;4.968;2023-07-22T07:42:40;22.50;60.50
9861;DHT22;4969;52.304;4.968;2023-07-22T07:45:08;22.34;60.91
9861;DHT22;4969;52.304;4.968;2023-07-22T07:47:35;22.63;59.95
9861;DHT22;4969;52.304;4.968;2023-07-22T07:50:01;23.04;58.60
9861;DHT22;4969;52.304;4.968;2023-07-22T07:52:28;23.02;58.80
9861;DHT22;4969;52.304;4.968;2023-07-22T07:54:55;23.06;58.51
9861;DHT22;4969;52.304;4.968;2023-07-22T07:57:21;22.85;59.37
9861;DHT22;4969;52.304;4.968;2023-07-22T07:59:49;22.68;60.15
9861;DHT22;4969;52.304;4.968;2023-07-22T08:02:16;22.69;60.33
9861;DHT22;4969;52.304;4.968;2023-07-22T08:04:42;22.81;59.81
9861;DHT22;4969;52.304;4.968;2023-07-22T08:07:09;23.13;58.48
9861;DHT22;4969;52.304;4.968;2023-07-22T08:09:36;22.68;60.42
9861;DHT22;4969;52.304;4.968;2023-07-22T08:12:03;22.75;59.96
9861;DHT22;4969;52.304;4.968;2023-07-22T08:14:29;22.63;60.30
9861;DHT22;4969;52.304;4.968;2023-07-22T08:16:57;22.85;59.81
9861;DHT22;4969;52.304;4.968;2023-07-22T08:19:24;22.33;61.53
9861;DHT22;4969;52.304;4.968;2023-07-22T08:21:50;22.74;60.30
9861;DHT22;4969;52.304;4.968;2023-07-22T08:24:17;22.74;60.31
9861;DHT22;4969;52.304;4.968;2023-07-22T08:26:44;22.89;59.81
9861;DHT22;4969;52.304;4.968;2023-07-22T08:29:10;23.02;59.57
9861;DHT22;4969;52.304;4.968;2023-07-22T08:31:37;23.24;58.72
9861;DHT22;4969;52.304;4.968;2023-07-22T08:34:05;23.12;59.36
9861;DHT22;4969;52.304;4.968;2023-07-22T08:36:32;22.95;59.67
9861;DHT22;4969;52.304;4.968;2023-07-22T08:38:58;22.95;59.79
9861;DHT22;4969;52.304;4.968;2023-07-22T08:41:25;23.19;58.81
9861;DHT22;4969;52.304;4.968;2023-07-22T08:43:54;23.27;58.64
9861;DHT22;4969;52.304;4.968;2023-07-22T08:46:22;23.06;59.46
9861;DHT22;4969;52.304;4.968;2023-07-22T08:48:53;22.55;60.82
9861;DHT22;4969;52.304;4.968;2023-07-22T08:51:22;22.85;59.95
9861;DHT22;4969;52.304;4.968;2023-07-22T08:53:50;22.78;59.77
9861;DHT22;4969;52.304;4.968;2023-07-22T08:56:18;22.76;59.63
9861;DHT22;4969;52.304;4.968;2023-07-22T08:58:46;22.72;59.73
9861;DHT22;4969;52.304;4.968;2023-07-22T09:01:12;22.33;61.39
9861;DHT22;4969;52.304;4.968;2023-07-22T09:03:39;21.89;62.99
9861;DHT22;4969;52.304;4.968;2023-07-22T09:06:07;21.85;63.09
9861;DHT22;4969;52.304;4.968;2023-07-22T09:08:35;21.81;62.86
9861;DHT22;4969;52.304;4.968;2023-07-22T09:11:02;22.03;61.71
9861;DHT22;4969;52.304;4.968;2023-07-22T09:13:28;21.95;62.03
9861;DHT22;4969;52.304;4.968;2023-07-22T09:15:57;21.99;60.83
9861;DHT22;4969;52.304;4.968;2023-07-22T09:18:24;21.71;61.57
9861;DHT22;4969;52.304;4.968;2023-07-22T09:20:51;21.50;62.93
9861;DHT22;4969;52.304;4.968;2023-07-22T09:23:18;21.41;63.25
9861;DHT22;4969;52.304;4.968;2023-07-22T09:25:46;21.98;61.87
9861;DHT22;4969;52.304;4.968;2023-07-22T09:28:12;21.73;62.31
9861;DHT22;4969;52.304;4.968;2023-07-22T09:30:39;21.50;62.89
9861;DHT22;4969;52.304;4.968;2023-07-22T09:33:07;21.53;63.60
9861;DHT22;4969;52.304;4.968;2023-07-22T09:35:45;21.59;63.73
9861;DHT22;4969;52.304;4.968;2023-07-22T09:38:11;21.48;63.03
9861;DHT22;4969;52.304;4.968;2023-07-22T09:40:41;21.48;63.61
9861;DHT22;4969;52.304;4.968;2023-07-22T09:43:11;21.43;62.90
9861;DHT22;4969;52.304;4.968;2023-07-22T09:45:38;21.00;63.43
9861;DHT22;4969;52.304;4.968;2023-07-22T09:48:05;20.85;64.53
9861;DHT22;4969;52.304;4.968;2023-07-22T09:50:32;20.55;64.48
9861;DHT22;4969;52.304;4.968;2023-07-22T09:52:59;20.48;65.55
9861;DHT22;4969;52.304;4.968;2023-07-22T09:55:27;20.63;65.32
9861;DHT22;4969;52.304;4.968;2023-07-22T09:57:55;20.52;65.68
9861;DHT22;4969;52.304;4.968;2023-07-22T10:00:28;20.49;66.53
9861;DHT22;4969;52.304;4.968;2023-07-22T10:02:57;20.90;65.57
9861;DHT22;4969;52.304;4.968;2023-07-22T10:05:25;21.00;65.61
9861;DHT22;4969;52.304;4.968;2023-07-22T10:07:53;20.93;65.58
9861;DHT22;4969;52.304;4.968;2023-07-22T10:10:22;21.24;65.26
9861;DHT22;4969;52.304;4.968;2023-07-22T10:12:50;21.44;64.69
9861;DHT22;4969;52.304;4.968;2023-07-22T10:15:18;21.61;63.53
9861;DHT22;4969;52.304;4.968;2023-07-22T10:17:46;21.53;64.13
9861;DHT22;4969;52.304;4.968;2023-07-22T10:20:13;21.45;64.22
9861;DHT22;4969;52.304;4.968;2023-07-22T10:22:42;21.72;63.57
9861;DHT22;4969;52.304;4.968;2023-07-22T10:25:11;21.54;63.33
9861;DHT22;4969;52.304;4.968;2023-07-22T10:27:38;21.28;63.47
9861;DHT22;4969;52.304;4.968;2023-07-22T10:30:07;21.28;64.41
9861;DHT22;4969;52.304;4.968;2023-07-22T10:32:35;20.92;64.33
9861;DHT22;4969;52.304;4.968;2023-07-22T10:35:05;21.06;64.53
9861;DHT22;4969;52.304;4.968;2023-07-22T10:37:35;20.86;64.83
9861;DHT22;4969;52.304;4.968;2023-07-22T10:40:17;21.17;64.80
9861;DHT22;4969;52.304;4.968;2023-07-22T10:42:51;20.93;65.58
9861;DHT22;4969;52.304;4.968;2023-07-22T10:45:26;20.45;65.55
9861;DHT22;4969;52.304;4.968;2023-07-22T10:48:06;20.61;65.71
9861;DHT22;4969;52.304;4.968;2023-07-22T10:50:42;20.79;65.63
9861;DHT22;4969;52.304;4.968;2023-07-22T10:53:10;20.55;65.37
9861;DHT22;4969;52.304;4.968;2023-07-22T10:56:02;20.54;65.92
9861;DHT22;4969;52.304;4.968;2023-07-22T10:58:30;20.41;66.08
9861;DHT22;4969;52.304;4.968;2023-07-22T11:00:56;20.49;66.03
9861;DHT22;4969;52.304;4.968;2023-07-22T11:04:12;20.62;66.34
9861;DHT22;4969;52.304;4.968;2023-07-22T11:06:52;20.54;66.34
9861;DHT22;4969;52.304;4.968;2023-07-22T11:09:39;20.81;65.86
9861;DHT22;4969;52.304;4.968;2023-07-22T11:12:09;20.59;66.13
9861;DHT22;4969;52.304;4.968;2023-07-22T11:14:39;20.67;66.28
9861;DHT22;4969;52.304;4.968;2023-07-22T11:17:07;21.16;65.66
9861;DHT22;4969;52.304;4.968;2023-07-22T11:19:34;21.30;64.97
9861;DHT22;4969;52.304;4.968;2023-07-22T11:22:04;21.24;64.61
9861;DHT22;4969;52.304;4.968;2023-07-22T11:24:33;21.38;64.73
9861;DHT22;4969;52.304;4.968;2023-07-22T11:27:02;21.75;63.98
9861;DHT22;4969;52.304;4.968;2023-07-22T11:29:29;21.65;63.32
9861;DHT22;4969;52.304;4.968;2023-07-22T11:31:56;21.76;63.71
9861;DHT22;4969;52.304;4.968;2023-07-22T11:34:24;21.50;64.03
9861;DHT22;4969;52.304;4.968;2023-07-22T11:36:52;22.13;62.71
9861;DHT22;4969;52.304;4.968;2023-07-22T11:39:21;22.12;61.50
9861;DHT22;4969;52.304;4.968;2023-07-22T11:41:49;22.36;61.80
9861;DHT22;4969;52.304;4.968;2023-07-22T11:44:17;22.20;61.86
9861;DHT22;4969;52.304;4.968;2023-07-22T11:46:53;21.72;61.76
9861;DHT22;4969;52.304;4.968;2023-07-22T11:49:28;21.89;60.56
9861;DHT22;4969;52.304;4.968;2023-07-22T11:51:56;21.71;60.34
9861;DHT22;4969;52.304;4.968;2023-07-22T11:54:24;21.86;61.74
9861;DHT22;4969;52.304;4.968;2023-07-22T11:56:51;21.88;59.74
9861;DHT22;4969;52.304;4.968;2023-07-22T11:59:32;22.09;60.23
9861;DHT22;4969;52.304;4.968;2023-07-22T12:01:59;22.26;57.24
9861;DHT22;4969;52.304;4.968;2023-07-22T12:04:26;22.06;60.55
9861;DHT22;4969;52.304;4.968;2023-07-22T12:06:53;21.79;57.63
9861;DHT22;4969;52.304;4.968;2023-07-22T12:09:19;21.79;57.11
9861;DHT22;4969;52.304;4.968;2023-07-22T12:11:54;21.71;57.09
9861;DHT22;4969;52.304;4.968;2023-07-22T12:14:21;21.14;58.10
9861;DHT22;4969;52.304;4.968;2023-07-22T12:16:53;21.50;57.90
9861;DHT22;4969;52.304;4.968;2023-07-22T12:19:21;21.50;59.63
9861;DHT22;4969;52.304;4.968;2023-07-22T12:21:48;21.55;56.66
9861;DHT22;4969;52.304;4.968;2023-07-22T12:24:15;21.53;57.06
9861;DHT22;4969;52.304;4.968;2023-07-22T12:26:41;21.41;59.23
9861;DHT22;4969;52.304;4.968;2023-07-22T12:29:09;21.51;57.35
9861;DHT22;4969;52.304;4.968;2023-07-22T12:31:36;20.73;56.83
9861;DHT22;4969;52.304;4.968;2023-07-22T12:34:03;21.30;58.31
9861;DHT22;4969;52.304;4.968;2023-07-22T12:36:30;21.18;57.27
9861;DHT22;4969;52.304;4.968;2023-07-22T12:38:56;21.28;57.31
9861;DHT22;4969;52.304;4.968;2023-07-22T12:41:23;21.30;59.08
9861;DHT22;4969;52.304;4.968;2023-07-22T12:43:49;21.40;55.74
9861;DHT22;4969;52.304;4.968;2023-07-22T12:46:18;21.51;57.86
9861;DHT22;4969;52.304;4.968;2023-07-22T12:48:45;21.66;58.32
9861;DHT22;4969;52.304;4.968;2023-07-22T12:51:11;21.79;54.85
9861;DHT22;4969;52.304;4.968;2023-07-22T12:53:39;21.53;55.35
9861;DHT22;4969;52.304;4.968;2023-07-22T12:56:05;21.44;59.15
9861;DHT22;4969;52.304;4.968;2023-07-22T12:58:32;21.41;56.70
9861;DHT22;4969;52.304;4.968;2023-07-22T13:00:58;21.69;56.87
9861;DHT22;4969;52.304;4.968;2023-07-22T13:03:26;21.79;58.45
9861;DHT22;4969;52.304;4.968;2023-07-22T13:05:53;21.81;58.48
9861;DHT22;4969;52.304;4.968;2023-07-22T13:08:20;21.68;57.85
9861;DHT22;4969;52.304;4.968;2023-07-22T13:10:46;21.71;55.88
9861;DHT22;4969;52.304;4.968;2023-07-22T13:13:13;21.69;56.29
9861;DHT22;4969;52.304;4.968;2023-07-22T13:15:40;21.51;58.51
9861;DHT22;4969;52.304;4.968;2023-07-22T13:18:06;21.47;56.12
9861;DHT22;4969;52.304;4.968;2023-07-22T13:20:35;21.24;58.37
9861;DHT22;4969;52.304;4.968;2023-07-22T13:23:01;21.40;55.65
9861;DHT22;4969;52.304;4.968;2023-07-22T13:25:28;21.99;58.38
9861;DHT22;4969;52.304;4.968;2023-07-22T13:27:56;22.00;57.16
9861;DHT22;4969;52.304;4.968;2023-07-22T13:30:22;22.38;52.28
9861;DHT22;4969;52.304;4.968;2023-07-22T13:32:49;22.30;54.59
9861;DHT22;4969;52.304;4.968;2023-07-22T13:35:15;22.31;56.20
9861;DHT22;4969;52.304;4.968;2023-07-22T13:37:43;22.27;53.71
9861;DHT22;4969;52.304;4.968;2023-07-22T13:40:10;22.26;54.71
9861;DHT22;4969;52.304;4.968;2023-07-22T13:42:38;23.13;56.62
9861;DHT22;4969;52.304;4.968;2023-07-22T13:45:06;23.53;54.33
9861;DHT22;4969;52.304;4.968;2023-07-22T13:47:32;23.51;54.34
9861;DHT22;4969;52.304;4.968;2023-07-22T13:49:59;22.89;52.43
9861;DHT22;4969;52.304;4.968;2023-07-22T13:52:26;23.04;52.63
9861;DHT22;4969;52.304;4.968;2023-07-22T13:54:54;22.96;55.46
9861;DHT22;4969;52.304;4.968;2023-07-22T13:57:20;22.43;50.47
9861;DHT22;4969;52.304;4.968;2023-07-22T13:59:47;22.26;55.26
9861;DHT22;4969;52.304;4.968;2023-07-22T14:02:13;22.51;52.81
9861;DHT22;4969;52.304;4.968;2023-07-22T14:04:40;22.36;51.20
9861;DHT22;4969;52.304;4.968;2023-07-22T14:07:07;22.45;53.78
9861;DHT22;4969;52.304;4.968;2023-07-22T14:09:33;22.65;56.98
9861;DHT22;4969;52.304;4.968;2023-07-22T14:12:05;22.81;55.17
9861;DHT22;4969;52.304;4.968;2023-07-22T14:14:32;22.92;55.45
9861;DHT22;4969;52.304;4.968;2023-07-22T14:16:58;22.75;54.83
9861;DHT22;4969;52.304;4.968;2023-07-22T14:19:25;23.65;53.98
9861;DHT22;4969;52.304;4.968;2023-07-22T14:21:53;23.53;53.17
9861;DHT22;4969;52.304;4.968;2023-07-22T14:24:20;23.75;55.32
9861;DHT22;4969;52.304;4.968;2023-07-22T14:26:46;23.99;54.88
9861;DHT22;4969;52.304;4.968;2023-07-22T14:29:15;24.39;53.70
9861;DHT22;4969;52.304;4.968;2023-07-22T14:31:42;24.13;53.34
9861;DHT22;4969;52.304;4.968;2023-07-22T14:34:09;23.91;51.78
9861;DHT22;4969;52.304;4.968;2023-07-22T14:36:35;23.93;53.68
9861;DHT22;4969;52.304;4.968;2023-07-22T14:39:02;23.79;52.28
9861;DHT22;4969;52.304;4.968;2023-07-22T14:41:29;23.55;53.61
9861;DHT22;4969;52.304;4.968;2023-07-22T14:43:56;23.77;52.35
9861;DHT22;4969;52.304;4.968;2023-07-22T14:46:24;23.69;51.52
9861;DHT22;4969;52.304;4.968;2023-07-22T14:48:50;23.81;54.34
9861;DHT22;4969;52.304;4.968;2023-07-22T14:51:17;24.06;53.54
9861;DHT22;4969;52.304;4.968;2023-07-22T14:53:43;24.13;53.14
9861;DHT22;4969;52.304;4.968;2023-07-22T14:56:11;24.09;53.26
9861;DHT22;4969;52.304;4.968;2023-07-22T14:58:37;23.99;52.45
9861;DHT22;4969;52.304;4.968;2023-07-22T15:01:04;23.92;53.18
9861;DHT22;4969;52.304;4.968;2023-07-22T15:03:33;23.93;53.24
9861;DHT22;4969;52.304;4.968;2023-07-22T15:05:59;23.85;53.51
9861;DHT22;4969;52.304;4.968;2023-07-22T15:08:26;23.89;53.25
9861;DHT22;4969;52.304;4.968;2023-07-22T15:10:52;23.84;52.78
9861;DHT22;4969;52.304;4.968;2023-07-22T15:13:19;23.82;52.76
9861;DHT22;4969;52.304;4.968;2023-07-22T15:15:46;23.75;52.56
9861;DHT22;4969;52.304;4.968;2023-07-22T15:18:13;23.79;53.71
9861;DHT22;4969;52.304;4.968;2023-07-22T15:20:42;23.71;53.93
9861;DHT22;4969;52.304;4.968;2023-07-22T15:23:09;23.71;54.13
9861;DHT22;4969;52.304;4.968;2023-07-22T15:25:35;23.71;54.52
9861;DHT22;4969;52.304;4.968;2023-07-22T15:28:02;23.71;54.54
9861;DHT22;4969;52.304;4.968;2023-07-22T15:30:29;23.75;54.19
9861;DHT22;4969;52.304;4.968;2023-07-22T15:32:55;23.27;54.51
9861;DHT22;4969;52.304;4.968;2023-07-22T15:35:22;22.81;54.43
9861;DHT22;4969;52.304;4.968;2023-07-22T15:37:50;22.76;53.35
9861;DHT22;4969;52.304;4.968;2023-07-22T15:40:18;22.67;55.34
9861;DHT22;4969;52.304;4.968;2023-07-22T15:42:45;22.75;57.37
9861;DHT22;4969;52.304;4.968;2023-07-22T15:45:11;22.61;56.57
9861;DHT22;4969;52.304;4.968;2023-07-22T15:47:38;22.43;55.82
9861;DHT22;4969;52.304;4.968;2023-07-22T15:50:05;22.61;56.16
9861;DHT22;4969;52.304;4.968;2023-07-22T15:52:33;22.40;55.21
9861;DHT22;4969;52.304;4.968;2023-07-22T15:55:01;22.55;58.10
9861;DHT22;4969;52.304;4.968;2023-07-22T15:57:27;22.76;55.20
9861;DHT22;4969;52.304;4.968;2023-07-22T15:59:54;22.82;54.49
9861;DHT22;4969;52.304;4.968;2023-07-22T16:02:20;22.93;56.05
9861;DHT22;4969;52.304;4.968;2023-07-22T16:04:47;22.68;53.62